sensor_id;sensor_type;location;lat;lon;timestamp;pressure;altitude;pressure_sealevel;temperature;humidity
7264;BME280;3673;52.480;13.348;2023-05-25T00:00:13;101892.41;;;16.47;52.67
7264;BME280;3673;52.480;13.348;2023-05-25T00:02:41;101893.28;;;16.43;52.73
7264;BME280;3673;52.480;13.348;2023-05-25T00:05:09;101897.72;;;16.40;52.81
7264;BME280;3673;52.480;13.348;2023-05-25T00:07:36;101910.22;;;16.09;53.57
7264;BME280;3673;52.480;13.348;2023-05-25T00:10:04;101903.09;;;16.23;53.31
7264;BME280;3673;52.480;13.348;2023-05-25T00:12:31;101894.28;;;16.21;53.53
7264;BME280;3673;52.480;13.348;2023-05-25T00:14:59;101905.72;;;16.25;53.26
7264;BME280;3673;52.480;13.348;2023-05-25T00:17:26;101897.22;;;15.64;54.72
7264;BME280;3673;52.480;13.348;2023-05-25T00:19:56;101897.16;;;15.68;54.62
7264;BME280;3673;52.480;13.348;2023-05-25T00:22:31;101901.47;;;15.96;53.98
7264;BME280;3673;52.480;13.348;2023-05-25T00:24:58;101901.53;;;15.87;54.33
7264;BME280;3673;52.480;13.348;2023-05-25T00:27:25;101901.38;;;16.12;53.84
7264;BME280;3673;52.480;13.348;2023-05-25T00:29:52;101894.44;;;15.92;54.03
7264;BME280;3673;52.480;13.348;2023-05-25T00:32:20;101887.41;;;15.91;53.90
7264;BME280;3673;52.480;13.348;2023-05-25T00:34:47;101896.09;;;16.13;53.58
7264;BME280;3673;52.480;13.348;2023-05-25T00:37:14;101894.38;;;16.09;53.52
7264;BME280;3673;52.480;13.348;2023-05-25T00:39:41;101898.72;;;16.19;53.48
7264;BME280;3673;52.480;13.348;2023-05-25T00:42:07;101898.75;;;16.09;53.36
7264;BME280;3673;52.480;13.348;2023-05-25T00:44:34;101901.41;;;16.10;53.73
7264;BME280;3673;52.480;13.348;2023-05-25T00:47:01;101892.53;;;16.23;53.26
7264;BME280;3673;52.480;13.348;2023-05-25T00:49:33;101896.13;;;16.09;53.47
7264;BME280;3673;52.480;13.348;2023-05-25T00:52:00;101894.34;;;16.14;53.20
7264;BME280;3673;52.480;13.348;2023-05-25T00:54:27;101896.88;;;16.29;53.03
7264;BME280;3673;52.480;13.348;2023-05-25T00:56:58;101894.41;;;16.02;53.42
7264;BME280;3673;52.480;13.348;2023-05-25T00:59:32;101899.66;;;16.11;53.27
7264;BME280;3673;52.480;13.348;2023-05-25T01:02:08;101889.94;;;16.13;53.19
7264;BME280;3673;52.480;13.348;2023-05-25T01:04:39;101891.78;;;16.00;53.61
7264;BME280;3673;52.480;13.348;2023-05-25T01:07:12;101885.63;;;15.96;53.26
7264;BME280;3673;52.480;13.348;2023-05-25T01:09:44;101890.88;;;16.07;53.35
7264;BME280;3673;52.480;13.348;2023-05-25T01:12:14;101889.91;;;16.20;53.03
7264;BME280;3673;52.480;13.348;2023-05-25T01:14:41;101886.34;;;16.27;52.57
7264;BME280;3673;52.480;13.348;2023-05-25T01:17:10;101887.38;;;16.04;53.13
7264;BME280;3673;52.480;13.348;2023-05-25T01:19:38;101891.72;;;16.09;53.10
7264;BME280;3673;52.480;13.348;2023-05-25T01:22:14;101897.72;;;16.35;52.75
7264;BME280;3673;52.480;13.348;2023-05-25T01:24:47;101890.75;;;16.30;52.68
7264;BME280;3673;52.480;13.348;2023-05-25T01:27:21;101900.47;;;16.23;52.48
7264;BME280;3673;52.480;13.348;2023-05-25T01:29:49;101900.59;;;16.01;53.14
7264;BME280;3673;52.480;13.348;2023-05-25T01:32:17;101897.91;;;16.02;53.28
7264;BME280;3673;52.480;13.348;2023-05-25T01:34:44;101896.28;;;15.77;53.88
7264;BME280;3673;52.480;13.348;2023-05-25T01:37:13;101904.97;;;16.00;53.56
7264;BME280;3673;52.480;13.348;2023-05-25T01:39:44;101893.53;;;15.95;53.55
7264;BME280;3673;52.480;13.348;2023-05-25T01:42:11;101895.28;;;16.02;53.81
7264;BME280;3673;52.480;13.348;2023-05-25T01:44:38;101904.19;;;15.80;54.01
7264;BME280;3673;52.480;13.348;2023-05-25T01:47:15;101906.66;;;16.16;52.99
7264;BME280;3673;52.480;13.348;2023-05-25T01:49:52;101909.44;;;15.90;53.79
7264;BME280;3673;52.480;13.348;2023-05-25T01:52:25;101900.63;;;15.88;53.74
7264;BME280;3673;52.480;13.348;2023-05-25T01:54:59;101898.06;;;15.66;54.37
7264;BME280;3673;52.480;13.348;2023-05-25T01:57:28;101894.53;;;15.65;54.57
7264;BME280;3673;52.480;13.348;2023-05-25T01:59:57;101898.81;;;15.98;53.78
7264;BME280;3673;52.480;13.348;2023-05-25T02:02:28;101903.19;;;16.07;53.44
7264;BME280;3673;52.480;13.348;2023-05-25T02:04:56;101893.66;;;15.72;54.22
7264;BME280;3673;52.480;13.348;2023-05-25T02:07:24;101892.81;;;15.67;54.38
7264;BME280;3673;52.480;13.348;2023-05-25T02:09:51;101888.41;;;15.66;54.46
7264;BME280;3673;52.480;13.348;2023-05-25T02:12:17;101892.81;;;15.58;54.70
7264;BME280;3673;52.480;13.348;2023-05-25T02:14:44;101895.41;;;15.73;54.46
7264;BME280;3673;52.480;13.348;2023-05-25T02:17:13;101890.19;;;15.54;54.79
7264;BME280;3673;52.480;13.348;2023-05-25T02:19:42;101876.16;;;15.41;55.27
7264;BME280;3673;52.480;13.348;2023-05-25T02:22:09;101892.78;;;15.61;54.71
7264;BME280;3673;52.480;13.348;2023-05-25T02:24:37;101891.03;;;15.66;54.54
7264;BME280;3673;52.480;13.348;2023-05-25T02:27:04;101894.59;;;15.53;55.06
7264;BME280;3673;52.480;13.348;2023-05-25T02:29:31;101902.50;;;15.44;55.26
7264;BME280;3673;52.480;13.348;2023-05-25T02:31:58;101898.97;;;15.56;55.17
7264;BME280;3673;52.480;13.348;2023-05-25T02:34:25;101899.84;;;15.45;55.17
7264;BME280;3673;52.480;13.348;2023-05-25T02:36:52;101906.00;;;15.55;55.03
7264;BME280;3673;52.480;13.348;2023-05-25T02:39:19;101898.13;;;15.26;55.90
7264;BME280;3673;52.480;13.348;2023-05-25T02:41:47;101904.22;;;15.66;54.90
7264;BME280;3673;52.480;13.348;2023-05-25T02:44:14;101904.25;;;15.56;55.50
7264;BME280;3673;52.480;13.348;2023-05-25T02:46:41;101907.75;;;15.55;55.17
7264;BME280;3673;52.480;13.348;2023-05-25T02:49:07;101899.00;;;15.50;55.39
7264;BME280;3673;52.480;13.348;2023-05-25T02:51:34;101891.91;;;15.65;54.96
7264;BME280;3673;52.480;13.348;2023-05-25T02:54:01;101894.56;;;15.55;55.59
7264;BME280;3673;52.480;13.348;2023-05-25T02:56:28;101898.06;;;15.61;55.17
7264;BME280;3673;52.480;13.348;2023-05-25T02:58:57;101898.09;;;15.55;55.72
7264;BME280;3673;52.480;13.348;2023-05-25T03:01:23;101899.84;;;15.61;55.45
7264;BME280;3673;52.480;13.348;2023-05-25T03:03:55;101891.94;;;15.59;55.43
7264;BME280;3673;52.480;13.348;2023-05-25T03:06:22;101898.94;;;15.65;55.22
7264;BME280;3673;52.480;13.348;2023-05-25T03:08:50;101898.06;;;15.67;54.94
7264;BME280;3673;52.480;13.348;2023-05-25T03:11:17;101898.00;;;15.85;54.78
7264;BME280;3673;52.480;13.348;2023-05-25T03:13:44;101897.13;;;15.83;54.89
7264;BME280;3673;52.480;13.348;2023-05-25T03:16:12;101901.47;;;15.92;54.63
7264;BME280;3673;52.480;13.348;2023-05-25T03:18:39;101899.72;;;15.95;54.33
7264;BME280;3673;52.480;13.348;2023-05-25T03:21:05;101900.63;;;15.85;54.85
7264;BME280;3673;52.480;13.348;2023-05-25T03:23:32;101907.66;;;15.86;54.76
7264;BME280;3673;52.480;13.348;2023-05-25T03:25:59;101903.28;;;15.87;54.82
7264;BME280;3673;52.480;13.348;2023-05-25T03:28:26;101903.31;;;15.73;55.20
7264;BME280;3673;52.480;13.348;2023-05-25T03:30:52;101915.63;;;15.68;55.56
7264;BME280;3673;52.480;13.348;2023-05-25T03:33:20;101913.84;;;15.84;55.17
7264;BME280;3673;52.480;13.348;2023-05-25T03:35:47;101909.44;;;15.87;54.97
7264;BME280;3673;52.480;13.348;2023-05-25T03:38:14;101920.91;;;15.76;55.29
7264;BME280;3673;52.480;13.348;2023-05-25T03:40:41;101914.66;;;15.96;54.81
7264;BME280;3673;52.480;13.348;2023-05-25T03:43:07;101912.03;;;15.93;55.00
7264;BME280;3673;52.480;13.348;2023-05-25T03:45:34;101919.97;;;15.89;55.25
7264;BME280;3673;52.480;13.348;2023-05-25T03:48:01;101916.53;;;15.69;55.83
7264;BME280;3673;52.480;13.348;2023-05-25T03:50:29;101917.34;;;15.81;55.61
7264;BME280;3673;52.480;13.348;2023-05-25T03:52:55;101916.56;;;15.57;56.24
7264;BME280;3673;52.480;13.348;2023-05-25T03:55:23;101928.81;;;15.77;55.81
7264;BME280;3673;52.480;13.348;2023-05-25T03:57:49;101922.69;;;15.74;55.97
7264;BME280;3673;52.480;13.348;2023-05-25T04:00:18;101927.94;;;15.72;56.00
7264;BME280;3673;52.480;13.348;2023-05-25T04:02:45;101926.16;;;15.86;55.58
7264;BME280;3673;52.480;13.348;2023-05-25T04:05:12;101937.59;;;15.75;56.00
7264;BME280;3673;52.480;13.348;2023-05-25T04:07:40;101934.06;;;15.91;55.87
7264;BME280;3673;52.480;13.348;2023-05-25T04:10:07;101934.06;;;15.82;55.94
7264;BME280;3673;52.480;13.348;2023-05-25T04:12:34;101930.63;;;15.63;56.43
7264;BME280;3673;52.480;13.348;2023-05-25T04:15:01;101934.97;;;15.81;55.95
7264;BME280;3673;52.480;13.348;2023-05-25T04:17:30;101941.97;;;15.86;55.77
7264;BME280;3673;52.480;13.348;2023-05-25T04:19:56;101943.78;;;15.77;56.43
7264;BME280;3673;52.480;13.348;2023-05-25T04:22:23;101945.53;;;15.72;56.65
7264;BME280;3673;52.480;13.348;2023-05-25T04:24:51;101952.53;;;15.91;56.24
7264;BME280;3673;52.480;13.348;2023-05-25T04:27:18;101945.56;;;15.64;57.04
7264;BME280;3673;52.480;13.348;2023-05-25T04:29:45;101945.59;;;15.57;57.13
7264;BME280;3673;52.480;13.348;2023-05-25T04:32:14;101951.72;;;15.68;57.18
7264;BME280;3673;52.480;13.348;2023-05-25T04:34:42;101957.88;;;15.62;57.14
7264;BME280;3673;52.480;13.348;2023-05-25T04:37:09;101959.59;;;15.83;56.96
7264;BME280;3673;52.480;13.348;2023-05-25T04:39:35;101958.56;;;16.19;56.31
7264;BME280;3673;52.480;13.348;2023-05-25T04:42:04;101969.09;;;16.26;56.20
7264;BME280;3673;52.480;13.348;2023-05-25T04:44:31;101970.78;;;16.39;55.57
7264;BME280;3673;52.480;13.348;2023-05-25T04:46:59;101962.06;;;16.24;55.89
7264;BME280;3673;52.480;13.348;2023-05-25T04:49:27;101966.47;;;16.19;56.21
7264;BME280;3673;52.480;13.348;2023-05-25T04:51:54;101964.59;;;16.46;55.82
7264;BME280;3673;52.480;13.348;2023-05-25T04:54:20;101957.59;;;16.36;55.92
7264;BME280;3673;52.480;13.348;2023-05-25T04:56:47;101964.59;;;16.46;56.09
7264;BME280;3673;52.480;13.348;2023-05-25T04:59:15;101957.53;;;16.45;55.76
7264;BME280;3673;52.480;13.348;2023-05-25T05:01:42;101959.31;;;16.51;55.87
7264;BME280;3673;52.480;13.348;2023-05-25T05:04:10;101958.56;;;16.19;56.53
7264;BME280;3673;52.480;13.348;2023-05-25T05:06:37;101944.53;;;16.09;56.75
7264;BME280;3673;52.480;13.348;2023-05-25T05:09:05;101950.75;;;16.01;57.17
7264;BME280;3673;52.480;13.348;2023-05-25T05:11:32;101943.63;;;16.16;56.93
7264;BME280;3673;52.480;13.348;2023-05-25T05:13:58;101951.38;;;16.45;56.40
7264;BME280;3673;52.480;13.348;2023-05-25T05:16:27;101946.06;;;16.56;56.17
7264;BME280;3673;52.480;13.348;2023-05-25T05:18:58;101947.94;;;16.34;56.78
7264;BME280;3673;52.480;13.348;2023-05-25T05:21:25;101953.84;;;16.80;55.82
7264;BME280;3673;52.480;13.348;2023-05-25T05:23:51;101960.03;;;16.76;55.53
7264;BME280;3673;52.480;13.348;2023-05-25T05:26:18;101960.06;;;16.74;55.82
7264;BME280;3673;52.480;13.348;2023-05-25T05:28:45;101954.44;;;17.15;54.94
7264;BME280;3673;52.480;13.348;2023-05-25T05:31:12;101959.53;;;17.36;54.24
7264;BME280;3673;52.480;13.348;2023-05-25T05:33:43;101967.03;;;17.83;53.30
7264;BME280;3673;52.480;13.348;2023-05-25T05:36:09;101977.47;;;17.95;52.76
7264;BME280;3673;52.480;13.348;2023-05-25T05:38:36;101972.47;;;17.71;53.05
7264;BME280;3673;52.480;13.348;2023-05-25T05:41:04;101973.47;;;17.58;53.50
7264;BME280;3673;52.480;13.348;2023-05-25T05:43:37;101966.38;;;17.62;53.24
7264;BME280;3673;52.480;13.348;2023-05-25T05:46:07;101970.75;;;17.67;52.84
7264;BME280;3673;52.480;13.348;2023-05-25T05:48:34;101979.44;;;17.78;53.08
7264;BME280;3673;52.480;13.348;2023-05-25T05:51:02;101977.16;;;17.40;53.81
7264;BME280;3673;52.480;13.348;2023-05-25T05:53:29;101980.69;;;17.39;54.13
7264;BME280;3673;52.480;13.348;2023-05-25T05:55:56;101978.81;;;17.50;53.93
7264;BME280;3673;52.480;13.348;2023-05-25T05:58:24;101986.00;;;17.36;54.56
7264;BME280;3673;52.480;13.348;2023-05-25T06:00:52;101985.75;;;17.65;53.58
7264;BME280;3673;52.480;13.348;2023-05-25T06:03:19;101983.06;;;17.70;53.33
7264;BME280;3673;52.480;13.348;2023-05-25T06:05:46;101983.41;;;18.17;52.61
7264;BME280;3673;52.480;13.348;2023-05-25T06:08:14;101998.97;;;18.44;51.63
7264;BME280;3673;52.480;13.348;2023-05-25T06:10:41;101990.81;;;18.61;51.25
7264;BME280;3673;52.480;13.348;2023-05-25T06:13:08;101991.38;;;18.83;50.61
7264;BME280;3673;52.480;13.348;2023-05-25T06:15:35;101987.41;;;18.48;50.79
7264;BME280;3673;52.480;13.348;2023-05-25T06:18:01;102001.81;;;18.93;50.38
7264;BME280;3673;52.480;13.348;2023-05-25T06:20:28;101995.38;;;19.11;49.65
7264;BME280;3673;52.480;13.348;2023-05-25T06:22:55;101997.19;;;19.06;49.73
7264;BME280;3673;52.480;13.348;2023-05-25T06:25:24;102004.88;;;18.66;50.54
7264;BME280;3673;52.480;13.348;2023-05-25T06:27:51;102000.25;;;18.79;50.28
7264;BME280;3673;52.480;13.348;2023-05-25T06:30:17;101998.06;;;19.07;49.71
7264;BME280;3673;52.480;13.348;2023-05-25T06:32:44;101999.44;;;18.75;50.30
7264;BME280;3673;52.480;13.348;2023-05-25T06:35:11;102001.97;;;19.41;48.58
7264;BME280;3673;52.480;13.348;2023-05-25T06:37:44;102007.28;;;19.41;48.12
7264;BME280;3673;52.480;13.348;2023-05-25T06:40:11;102006.41;;;19.40;48.62
7264;BME280;3673;52.480;13.348;2023-05-25T06:42:39;102003.00;;;19.29;48.78
7264;BME280;3673;52.480;13.348;2023-05-25T06:45:07;102019.69;;;19.36;48.38
7264;BME280;3673;52.480;13.348;2023-05-25T06:47:34;102007.06;;;19.51;48.24
7264;BME280;3673;52.480;13.348;2023-05-25T06:50:01;101999.34;;;19.87;47.23
7264;BME280;3673;52.480;13.348;2023-05-25T06:52:28;102012.91;;;20.18;46.08
7264;BME280;3673;52.480;13.348;2023-05-25T06:54:56;102004.78;;;19.81;46.79
7264;BME280;3673;52.480;13.348;2023-05-25T06:57:23;101999.53;;;19.76;46.65
7264;BME280;3673;52.480;13.348;2023-05-25T06:59:51;102003.75;;;20.34;45.90
7264;BME280;3673;52.480;13.348;2023-05-25T07:02:18;102005.16;;;20.50;45.17
7264;BME280;3673;52.480;13.348;2023-05-25T07:04:45;102004.94;;;19.72;46.13
7264;BME280;3673;52.480;13.348;2023-05-25T07:07:12;102003.66;;;19.94;45.71
7264;BME280;3673;52.480;13.348;2023-05-25T07:09:39;102015.19;;;20.37;44.88
7264;BME280;3673;52.480;13.348;2023-05-25T07:12:06;102009.78;;;19.97;46.42
7264;BME280;3673;52.480;13.348;2023-05-25T07:14:34;102010.41;;;20.53;44.48
7264;BME280;3673;52.480;13.348;2023-05-25T07:17:02;102014.38;;;20.74;43.69
7264;BME280;3673;52.480;13.348;2023-05-25T07:19:29;102008.00;;;21.19;42.66
7264;BME280;3673;52.480;13.348;2023-05-25T07:21:56;102011.41;;;21.26;41.92
7264;BME280;3673;52.480;13.348;2023-05-25T07:24:22;102011.59;;;20.80;41.96
7264;BME280;3673;52.480;13.348;2023-05-25T07:26:49;102016.22;;;21.08;42.06
7264;BME280;3673;52.480;13.348;2023-05-25T07:29:16;102017.16;;;21.06;41.92
7264;BME280;3673;52.480;13.348;2023-05-25T07:31:43;102015.19;;;21.16;42.13
7264;BME280;3673;52.480;13.348;2023-05-25T07:34:11;102009.94;;;21.14;40.99
7264;BME280;3673;52.480;13.348;2023-05-25T07:36:38;102015.00;;;21.23;39.87
7264;BME280;3673;52.480;13.348;2023-05-25T07:39:05;102015.41;;;20.68;40.48
7264;BME280;3673;52.480;13.348;2023-05-25T07:41:31;102017.53;;;21.29;39.80
7264;BME280;3673;52.480;13.348;2023-05-25T07:43:58;102015.78;;;20.90;39.58
7264;BME280;3673;52.480;13.348;2023-05-25T07:46:25;102017.88;;;20.77;40.76
7264;BME280;3673;52.480;13.348;2023-05-25T07:48:52;102028.19;;;20.91;39.73
7264;BME280;3673;52.480;13.348;2023-05-25T07:51:22;102031.63;;;20.12;40.66
7264;BME280;3673;52.480;13.348;2023-05-25T07:53:51;102029.47;;;20.73;40.22
7264;BME280;3673;52.480;13.348;2023-05-25T07:56:18;102013.63;;;21.05;39.96
7264;BME280;3673;52.480;13.348;2023-05-25T07:58:45;102024.97;;;21.15;38.48
7264;BME280;3673;52.480;13.348;2023-05-25T08:01:11;102026.38;;;21.30;38.76
7264;BME280;3673;52.480;13.348;2023-05-25T08:03:39;102025.50;;;21.29;39.43
7264;BME280;3673;52.480;13.348;2023-05-25T08:06:05;102030.22;;;21.53;38.25
7264;BME280;3673;52.480;13.348;2023-05-25T08:08:33;102027.91;;;22.08;38.07
7264;BME280;3673;52.480;13.348;2023-05-25T08:11:01;102032.59;;;22.30;37.40
7264;BME280;3673;52.480;13.348;2023-05-25T08:13:28;102031.94;;;21.21;39.41
7264;BME280;3673;52.480;13.348;2023-05-25T08:15:55;102039.47;;;21.39;40.55
7264;BME280;3673;52.480;13.348;2023-05-25T08:18:22;102029.41;;;21.51;40.34
7264;BME280;3673;52.480;13.348;2023-05-25T08:20:49;102033.06;;;21.47;40.41
7264;BME280;3673;52.480;13.348;2023-05-25T08:23:16;102030.66;;;21.37;39.92
7264;BME280;3673;52.480;13.348;2023-05-25T08:25:44;102034.69;;;21.18;39.99
7264;BME280;3673;52.480;13.348;2023-05-25T08:28:11;102034.59;;;21.21;39.73
7264;BME280;3673;52.480;13.348;2023-05-25T08:30:38;102026.94;;;21.42;39.61
7264;BME280;3673;52.480;13.348;2023-05-25T08:33:05;102033.81;;;21.16;39.08
7264;BME280;3673;52.480;13.348;2023-05-25T08:35:32;102039.47;;;20.62;39.48
7264;BME280;3673;52.480;13.348;2023-05-25T08:37:59;102042.66;;;21.53;38.65
7264;BME280;3673;52.480;13.348;2023-05-25T08:40:26;102039.03;;;21.91;38.01
7264;BME280;3673;52.480;13.348;2023-05-25T08:42:55;102030.44;;;22.12;36.90
7264;BME280;3673;52.480;13.348;2023-05-25T08:45:22;102028.78;;;22.08;37.05
7264;BME280;3673;52.480;13.348;2023-05-25T08:47:52;102024.69;;;22.27;36.76
7264;BME280;3673;52.480;13.348;2023-05-25T08:50:20;102019.66;;;21.83;38.78
7264;BME280;3673;52.480;13.348;2023-05-25T08:52:49;102029.63;;;21.42;40.19
7264;BME280;3673;52.480;13.348;2023-05-25T08:55:18;102037.84;;;21.33;39.64
7264;BME280;3673;52.480;13.348;2023-05-25T08:57:56;102029.88;;;21.32;39.66
7264;BME280;3673;52.480;13.348;2023-05-25T09:00:29;102040.41;;;20.99;40.32
7264;BME280;3673;52.480;13.348;2023-05-25T09:03:05;102032.16;;;21.81;38.66
7264;BME280;3673;52.480;13.348;2023-05-25T09:05:34;102037.78;;;21.70;37.87
7264;BME280;3673;52.480;13.348;2023-05-25T09:08:02;102032.41;;;22.66;36.12
7264;BME280;3673;52.480;13.348;2023-05-25T09:10:32;102030.34;;;22.15;36.08
7264;BME280;3673;52.480;13.348;2023-05-25T09:13:02;102025.56;;;21.95;36.38
7264;BME280;3673;52.480;13.348;2023-05-25T09:15:29;102036.75;;;22.40;35.72
7264;BME280;3673;52.480;13.348;2023-05-25T09:17:56;102030.69;;;22.65;34.65
7264;BME280;3673;52.480;13.348;2023-05-25T09:20:23;102031.13;;;23.34;34.01
7264;BME280;3673;52.480;13.348;2023-05-25T09:22:56;102034.09;;;22.70;35.34
7264;BME280;3673;52.480;13.348;2023-05-25T09:25:23;102028.56;;;23.31;34.07
7264;BME280;3673;52.480;13.348;2023-05-25T09:27:52;102039.69;;;21.99;35.32
7264;BME280;3673;52.480;13.348;2023-05-25T09:30:22;102039.00;;;22.85;34.08
7264;BME280;3673;52.480;13.348;2023-05-25T09:32:49;102033.19;;;22.71;33.55
7264;BME280;3673;52.480;13.348;2023-05-25T09:35:16;102032.50;;;23.20;33.60
7264;BME280;3673;52.480;13.348;2023-05-25T09:37:43;102035.41;;;23.41;33.49
7264;BME280;3673;52.480;13.348;2023-05-25T09:40:10;102054.19;;;23.65;34.80
7264;BME280;3673;52.480;13.348;2023-05-25T09:42:37;102048.97;;;23.62;34.89
7264;BME280;3673;52.480;13.348;2023-05-25T09:45:05;102050.91;;;23.56;34.93
7264;BME280;3673;52.480;13.348;2023-05-25T09:47:35;102053.13;;;23.95;34.27
7264;BME280;3673;52.480;13.348;2023-05-25T09:50:03;102050.22;;;23.76;35.35
7264;BME280;3673;52.480;13.348;2023-05-25T09:52:30;102043.19;;;23.47;35.65
7264;BME280;3673;52.480;13.348;2023-05-25T09:54:57;102047.66;;;23.98;34.87
7264;BME280;3673;52.480;13.348;2023-05-25T09:57:26;102048.31;;;23.80;34.85
7264;BME280;3673;52.480;13.348;2023-05-25T09:59:53;102060.41;;;22.82;36.17
7264;BME280;3673;52.480;13.348;2023-05-25T10:02:20;102046.56;;;24.03;34.18
7264;BME280;3673;52.480;13.348;2023-05-25T10:04:48;102048.56;;;24.93;31.76
7264;BME280;3673;52.480;13.348;2023-05-25T10:07:15;102044.44;;;25.49;31.12
7264;BME280;3673;52.480;13.348;2023-05-25T10:09:45;102046.75;;;24.47;32.38
7264;BME280;3673;52.480;13.348;2023-05-25T10:12:13;102057.75;;;24.39;32.13
7264;BME280;3673;52.480;13.348;2023-05-25T10:14:43;102059.03;;;24.99;31.43
7264;BME280;3673;52.480;13.348;2023-05-25T10:17:13;102045.50;;;24.79;31.58
7264;BME280;3673;52.480;13.348;2023-05-25T10:19:54;102051.75;;;25.88;30.69
7264;BME280;3673;52.480;13.348;2023-05-25T10:22:29;102050.59;;;26.91;28.81
7264;BME280;3673;52.480;13.348;2023-05-25T10:25:07;102055.78;;;27.13;27.46
7264;BME280;3673;52.480;13.348;2023-05-25T10:27:39;102053.06;;;27.68;26.90
7264;BME280;3673;52.480;13.348;2023-05-25T10:30:08;102047.50;;;26.99;27.10
7264;BME280;3673;52.480;13.348;2023-05-25T10:32:36;102046.50;;;25.65;30.59
7264;BME280;3673;52.480;13.348;2023-05-25T10:35:06;102045.84;;;26.78;28.38
7264;BME280;3673;52.480;13.348;2023-05-25T10:37:35;102049.34;;;26.98;29.06
7264;BME280;3673;52.480;13.348;2023-05-25T10:40:05;102049.47;;;26.19;29.42
7264;BME280;3673;52.480;13.348;2023-05-25T10:42:34;102043.53;;;25.50;30.66
7264;BME280;3673;52.480;13.348;2023-05-25T10:45:02;102032.34;;;26.42;30.39
7264;BME280;3673;52.480;13.348;2023-05-25T10:47:30;102034.97;;;26.23;29.44
7264;BME280;3673;52.480;13.348;2023-05-25T10:49:58;102043.16;;;27.15;28.84
7264;BME280;3673;52.480;13.348;2023-05-25T10:52:31;102033.06;;;26.64;28.76
7264;BME280;3673;52.480;13.348;2023-05-25T10:55:00;102043.47;;;26.90;28.70
7264;BME280;3673;52.480;13.348;2023-05-25T10:57:29;102028.47;;;26.08;30.52
7264;BME280;3673;52.480;13.348;2023-05-25T11:00:01;102040.47;;;25.59;31.05
7264;BME280;3673;52.480;13.348;2023-05-25T11:02:47;102031.91;;;25.08;31.98
7264;BME280;3673;52.480;13.348;2023-05-25T11:05:32;102037.00;;;25.78;31.18
7264;BME280;3673;52.480;13.348;2023-05-25T11:08:01;102028.22;;;25.74;30.42
7264;BME280;3673;52.480;13.348;2023-05-25T11:10:51;102036.69;;;26.44;29.11
7264;BME280;3673;52.480;13.348;2023-05-25T11:13:35;102028.63;;;27.36;28.17
7264;BME280;3673;52.480;13.348;2023-05-25T11:16:30;102036.31;;;28.30;26.60
7264;BME280;3673;52.480;13.348;2023-05-25T11:19:01;102032.88;;;28.43;25.70
7264;BME280;3673;52.480;13.348;2023-05-25T11:21:42;102028.78;;;27.52;26.58
7264;BME280;3673;52.480;13.348;2023-05-25T11:24:17;102028.44;;;27.22;27.66
7264;BME280;3673;52.480;13.348;2023-05-25T11:26:57;102035.84;;;28.39;26.42
7264;BME280;3673;52.480;13.348;2023-05-25T11:29:30;102041.41;;;28.51;26.52
7264;BME280;3673;52.480;13.348;2023-05-25T11:31:57;102032.00;;;28.10;26.94
7264;BME280;3673;52.480;13.348;2023-05-25T11:34:25;102045.56;;;27.02;29.01
7264;BME280;3673;52.480;13.348;2023-05-25T11:36:54;102044.75;;;26.04;30.66
7264;BME280;3673;52.480;13.348;2023-05-25T11:39:23;102039.59;;;26.58;29.32
7264;BME280;3673;52.480;13.348;2023-05-25T11:41:53;102025.13;;;27.70;27.20
7264;BME280;3673;52.480;13.348;2023-05-25T11:44:29;102033.84;;;27.39;27.25
7264;BME280;3673;52.480;13.348;2023-05-25T11:46:59;102046.75;;;24.47;31.51
7264;BME280;3673;52.480;13.348;2023-05-25T11:49:27;102048.00;;;25.06;31.36
7264;BME280;3673;52.480;13.348;2023-05-25T11:51:55;102036.19;;;25.96;30.04
7264;BME280;3673;52.480;13.348;2023-05-25T11:54:26;102042.28;;;26.96;28.35
7264;BME280;3673;52.480;13.348;2023-05-25T11:56:54;102032.78;;;26.51;28.76
7264;BME280;3673;52.480;13.348;2023-05-25T11:59:24;102024.09;;;27.20;27.85
7264;BME280;3673;52.480;13.348;2023-05-25T12:01:56;102025.31;;;26.19;29.12
7264;BME280;3673;52.480;13.348;2023-05-25T12:04:22;102034.09;;;25.40;30.40
7264;BME280;3673;52.480;13.348;2023-05-25T12:06:49;102021.97;;;25.74;29.66
7264;BME280;3673;52.480;13.348;2023-05-25T12:09:19;102011.72;;;26.42;28.84
7264;BME280;3673;52.480;13.348;2023-05-25T12:11:48;102017.31;;;27.48;27.80
7264;BME280;3673;52.480;13.348;2023-05-25T12:14:15;102016.09;;;28.05;26.87
7264;BME280;3673;52.480;13.348;2023-05-25T12:16:42;102023.78;;;27.26;28.28
7264;BME280;3673;52.480;13.348;2023-05-25T12:19:10;102026.63;;;27.23;29.02
7264;BME280;3673;52.480;13.348;2023-05-25T12:21:38;102012.22;;;27.94;28.17
7264;BME280;3673;52.480;13.348;2023-05-25T12:24:06;102010.66;;;28.55;27.52
7264;BME280;3673;52.480;13.348;2023-05-25T12:26:33;102017.84;;;28.06;27.92
7264;BME280;3673;52.480;13.348;2023-05-25T12:29:04;102013.66;;;27.67;28.63
7264;BME280;3673;52.480;13.348;2023-05-25T12:31:32;102024.34;;;27.68;29.03
7264;BME280;3673;52.480;13.348;2023-05-25T12:34:08;102018.19;;;26.94;30.38
7264;BME280;3673;52.480;13.348;2023-05-25T12:36:40;102014.84;;;27.61;30.45
7264;BME280;3673;52.480;13.348;2023-05-25T12:39:08;102016.28;;;27.85;30.02
7264;BME280;3673;52.480;13.348;2023-05-25T12:41:47;102019.13;;;28.32;29.22
7264;BME280;3673;52.480;13.348;2023-05-25T12:44:18;102022.63;;;27.31;30.69
7264;BME280;3673;52.480;13.348;2023-05-25T12:46:45;102019.47;;;26.30;31.80
7264;BME280;3673;52.480;13.348;2023-05-25T12:49:32;102019.44;;;25.71;32.97
7264;BME280;3673;52.480;13.348;2023-05-25T12:52:01;102016.66;;;26.51;31.71
7264;BME280;3673;52.480;13.348;2023-05-25T12:54:41;102014.88;;;27.25;30.75
7264;BME280;3673;52.480;13.348;2023-05-25T12:57:11;102009.88;;;28.69;28.98
7264;BME280;3673;52.480;13.348;2023-05-25T12:59:42;102015.28;;;28.21;28.68
7264;BME280;3673;52.480;13.348;2023-05-25T13:02:10;102015.25;;;27.53;29.31
7264;BME280;3673;52.480;13.348;2023-05-25T13:04:38;102008.53;;;26.72;31.30
7264;BME280;3673;52.480;13.348;2023-05-25T13:07:07;102010.41;;;26.70;31.32